createdAt,value
2018-08-20T00:02:23.048Z,18.10
2018-08-20T00:04:51.569Z,18.10
2018-08-20T00:07:19.091Z,18.00
2018-08-20T00:09:47.413Z,18.20
2018-08-20T00:12:14.937Z,18.20
2018-08-20T00:14:42.469Z,18.30
2018-08-20T00:17:10.027Z,18.20
2018-08-20T00:19:37.552Z,18.30
2018-08-20T00:22:05.108Z,18.30
2018-08-20T00:24:32.843Z,18.20
2018-08-20T00:27:00.372Z,18.20
2018-08-20T00:29:27.921Z,18.10
2018-08-20T00:31:55.473Z,18.20
2018-08-20T00:34:23.765Z,18.20
2018-08-20T00:36:51.332Z,18.10
2018-08-20T00:39:18.881Z,18.10
2018-08-20T00:41:46.412Z,18.10
2018-08-20T00:44:13.970Z,18.00
2018-08-20T00:46:42.287Z,17.90
2018-08-20T00:49:09.813Z,17.90
2018-08-20T00:51:38.137Z,17.90
2018-08-20T00:54:05.665Z,17.80
2018-08-20T00:56:35.140Z,17.80
2018-08-20T00:59:02.664Z,17.90
2018-08-20T01:01:30.204Z,17.90
2018-08-20T01:03:57.796Z,17.80
2018-08-20T01:06:25.356Z,17.70
2018-08-20T01:08:52.908Z,17.70
2018-08-20T01:11:20.432Z,17.70
2018-08-20T01:13:47.982Z,17.70
2018-08-20T01:16:15.517Z,17.70
2018-08-20T01:18:43.068Z,17.70
2018-08-20T01:21:10.616Z,17.70
2018-08-20T01:23:38.177Z,17.60
2018-08-20T01:26:06.473Z,17.50
2018-08-20T01:28:34.032Z,17.50
2018-08-20T01:31:01.562Z,17.50
2018-08-20T01:33:29.126Z,17.50
2018-08-20T01:35:56.693Z,17.40
2018-08-20T01:38:24.249Z,17.40
2018-08-20T01:40:51.781Z,17.40
2018-08-20T01:43:20.097Z,17.40
2018-08-20T01:45:47.653Z,17.30
2018-08-20T01:48:15.213Z,17.30
2018-08-20T01:50:42.736Z,17.30
2018-08-20T01:53:10.264Z,17.30
2018-08-20T01:55:37.816Z,17.30
2018-08-20T01:58:05.345Z,17.20
2018-08-20T02:00:32.902Z,17.20
2018-08-20T02:03:00.444Z,17.10
2018-08-20T02:05:27.969Z,17.10
2018-08-20T02:07:58.236Z,17.10
2018-08-20T02:10:25.765Z,17.10
2018-08-20T02:12:53.321Z,17.10
2018-08-20T02:15:20.874Z,17.20
2018-08-20T02:17:48.432Z,17.10
2018-08-20T02:20:15.965Z,17.10
2018-08-20T02:22:43.498Z,17.10
2018-08-20T02:25:11.488Z,17.10
2018-08-20T02:27:39.017Z,17.00
2018-08-20T02:30:06.570Z,17.00
2018-08-20T02:32:34.129Z,17.00
2018-08-20T02:35:01.656Z,16.90
2018-08-20T02:37:29.208Z,16.90
2018-08-20T02:39:56.733Z,16.90
2018-08-20T02:42:24.296Z,16.90
2018-08-20T02:44:52.593Z,16.70
2018-08-20T02:47:20.148Z,16.70
2018-08-20T02:49:47.731Z,16.70
2018-08-20T02:52:15.274Z,16.60
2018-08-20T02:54:42.829Z,16.60
2018-08-20T02:57:10.357Z,16.60
2018-08-20T02:59:38.676Z,16.60
2018-08-20T03:02:06.228Z,16.60
2018-08-20T03:04:33.765Z,16.60
2018-08-20T03:07:01.320Z,16.60
2018-08-20T03:09:28.853Z,16.60
2018-08-20T03:11:56.408Z,16.60
2018-08-20T03:14:23.936Z,16.60
2018-08-20T03:16:51.497Z,16.50
2018-08-20T03:19:19.052Z,16.50
2018-08-20T03:21:46.581Z,16.50
2018-08-20T03:24:14.132Z,16.40
2018-08-20T03:26:41.688Z,16.40
2018-08-20T03:29:10.204Z,16.40
2018-08-20T03:31:37.734Z,16.40
2018-08-20T03:34:05.301Z,16.40
2018-08-20T03:36:32.830Z,16.40
2018-08-20T03:39:00.385Z,16.40
2018-08-20T03:41:27.917Z,16.40
2018-08-20T03:43:55.472Z,16.50
2018-08-20T03:46:23.001Z,16.50
2018-08-20T03:48:50.552Z,16.60
2018-08-20T03:51:18.103Z,16.60
2018-08-20T03:53:45.632Z,16.60
2018-08-20T03:56:13.188Z,16.60
2018-08-20T03:58:40.717Z,16.50
2018-08-20T04:01:08.244Z,16.50
2018-08-20T04:03:35.801Z,16.40
2018-08-20T04:06:03.418Z,16.30
2018-08-20T04:08:30.982Z,16.30
2018-08-20T04:10:58.525Z,16.30
2018-08-20T04:13:26.077Z,16.30
2018-08-20T04:15:54.416Z,16.30
2018-08-20T04:18:21.943Z,16.30
2018-08-20T04:20:49.504Z,16.30
2018-08-20T04:23:17.024Z,16.30
2018-08-20T04:25:45.513Z,16.30
2018-08-20T04:28:13.069Z,16.30
2018-08-20T04:30:40.706Z,16.30
2018-08-20T04:33:08.393Z,16.40
2018-08-20T04:35:35.918Z,16.30
2018-08-20T04:38:04.247Z,16.20
2018-08-20T04:40:31.774Z,16.20
2018-08-20T04:42:59.336Z,16.20
2018-08-20T04:45:26.873Z,16.20
2018-08-20T04:47:55.189Z,16.10
2018-08-20T04:50:23.927Z,16.10
2018-08-20T04:52:51.385Z,16.20
2018-08-20T04:55:19.683Z,16.10
2018-08-20T04:57:47.235Z,16.10
2018-08-20T05:00:15.777Z,16.10
2018-08-20T05:02:43.333Z,16.20
2018-08-20T05:05:10.865Z,16.20
2018-08-20T05:07:38.388Z,16.20
2018-08-20T05:10:06.019Z,16.30
2018-08-20T05:12:33.528Z,16.30
2018-08-20T05:15:01.085Z,16.30
2018-08-20T05:17:28.630Z,16.30
2018-08-20T05:19:56.201Z,16.30
2018-08-20T05:22:23.757Z,16.40
2018-08-20T05:24:51.312Z,16.50
2018-08-20T05:27:18.850Z,16.50
2018-08-20T05:29:46.411Z,16.60
2018-08-20T05:32:13.965Z,16.70
2018-08-20T05:34:41.525Z,16.80
2018-08-20T05:37:09.057Z,16.90
2018-08-20T05:39:38.576Z,17.00
2018-08-20T05:42:06.139Z,17.20
2018-08-20T05:44:33.660Z,17.30
2018-08-20T05:47:01.217Z,17.50
2018-08-20T05:49:28.776Z,17.50
2018-08-20T05:51:56.300Z,17.50
2018-08-20T05:54:23.848Z,17.60
2018-08-20T05:56:52.357Z,17.70
2018-08-20T05:59:19.940Z,17.80
2018-08-20T06:01:47.469Z,17.90
2018-08-20T06:04:15.952Z,18.00
2018-08-20T06:06:43.516Z,18.20
2018-08-20T06:09:11.046Z,18.30
2018-08-20T06:11:38.616Z,18.40
2018-08-20T06:14:06.172Z,18.60
2018-08-20T06:16:33.713Z,18.70
2018-08-20T06:19:01.287Z,18.80
2018-08-20T06:21:29.825Z,18.90
2018-08-20T06:23:59.365Z,19.00
2018-08-20T06:26:27.849Z,19.10
2018-08-20T06:28:55.396Z,19.30
2018-08-20T06:31:24.904Z,19.40
2018-08-20T06:33:52.461Z,19.50
2018-08-20T06:36:20.006Z,19.50
2018-08-20T06:38:47.561Z,19.60
2018-08-20T06:41:15.097Z,19.70
2018-08-20T06:43:42.654Z,19.80
2018-08-20T06:46:10.189Z,19.90
2018-08-20T06:48:37.763Z,20.00
2018-08-20T06:51:05.301Z,20.20
2018-08-20T06:53:33.620Z,20.50
2018-08-20T06:56:01.169Z,20.50
2018-08-20T06:58:28.695Z,20.60
2018-08-20T07:00:56.254Z,20.70
2018-08-20T07:03:23.798Z,20.70
2018-08-20T07:05:52.124Z,20.90
2018-08-20T07:08:19.657Z,20.90
2018-08-20T07:10:48.169Z,21.00
2018-08-20T07:13:20.658Z,21.10
2018-08-20T07:15:48.219Z,21.30
2018-08-20T07:18:17.706Z,21.40
2018-08-20T07:20:45.232Z,21.50
2018-08-20T07:23:12.785Z,21.60
2018-08-20T07:25:40.341Z,21.60
2018-08-20T07:28:09.877Z,21.70
2018-08-20T07:30:37.414Z,21.90
2018-08-20T07:33:04.979Z,22.10
2018-08-20T07:35:32.526Z,22.20
2018-08-20T07:38:00.071Z,22.20
2018-08-20T07:40:27.650Z,22.30
2018-08-20T07:42:57.165Z,22.40
2018-08-20T07:45:24.698Z,22.50
2018-08-20T07:47:52.263Z,22.60
2018-08-20T07:50:19.788Z,22.70
2018-08-20T07:52:47.335Z,22.80
2018-08-20T07:55:16.599Z,22.80
2018-08-20T07:57:44.126Z,22.80
2018-08-20T08:00:11.704Z,22.80
2018-08-20T08:02:39.301Z,23.00
2018-08-20T08:05:08.540Z,23.20
2018-08-20T08:07:36.091Z,23.10
2018-08-20T08:10:03.657Z,23.30
2018-08-20T08:12:31.189Z,23.50
2018-08-20T08:14:58.749Z,23.70
2018-08-20T08:17:26.285Z,23.80
2018-08-20T08:19:53.915Z,23.80
2018-08-20T08:22:21.425Z,23.90
2018-08-20T08:24:49.020Z,24.00
2018-08-20T08:27:16.553Z,24.10
2018-08-20T08:29:44.119Z,24.10
2018-08-20T08:32:11.665Z,24.10
2018-08-20T08:34:41.194Z,24.10
2018-08-20T08:37:08.769Z,24.20
2018-08-20T08:39:36.330Z,24.10
2018-08-20T08:42:03.872Z,24.10
2018-08-20T08:44:31.462Z,24.30
2018-08-20T08:46:59.054Z,24.50
2018-08-20T08:49:26.602Z,24.70
2018-08-20T08:51:54.165Z,24.60
2018-08-20T08:54:21.709Z,24.60
2018-08-20T08:56:49.277Z,24.70
2018-08-20T08:59:16.806Z,24.70
2018-08-20T09:01:44.365Z,24.90
2018-08-20T09:04:14.654Z,24.90
2018-08-20T09:06:43.153Z,24.90
2018-08-20T09:09:10.703Z,25.00
2018-08-20T09:11:38.249Z,25.20
2018-08-20T09:14:05.826Z,25.30
2018-08-20T09:16:33.365Z,25.40
2018-08-20T09:19:00.943Z,25.50
2018-08-20T09:21:30.457Z,25.50
2018-08-20T09:23:58.021Z,25.60
2018-08-20T09:26:25.593Z,25.60
2018-08-20T09:28:53.123Z,25.80
2018-08-20T09:31:21.458Z,25.80
2018-08-20T09:33:48.997Z,25.80
2018-08-20T09:36:16.574Z,26.00
2018-08-20T09:38:44.101Z,26.10
2018-08-20T09:41:11.668Z,26.10
2018-08-20T09:43:39.200Z,26.20
2018-08-20T09:46:06.765Z,26.30
2018-08-20T09:48:34.307Z,26.40
2018-08-20T09:51:01.839Z,26.30
2018-08-20T09:53:29.419Z,26.30
2018-08-20T09:55:56.979Z,26.40
2018-08-20T09:58:24.538Z,26.30
2018-08-20T10:00:52.080Z,26.30
2018-08-20T10:03:19.625Z,26.30
2018-08-20T10:05:47.154Z,26.20
2018-08-20T10:08:16.655Z,26.20
2018-08-20T10:10:44.222Z,26.30
2018-08-20T10:13:11.782Z,26.60
2018-08-20T10:15:39.317Z,26.60
2018-08-20T10:18:06.877Z,26.50
2018-08-20T10:20:34.442Z,26.50
2018-08-20T10:23:01.998Z,26.60
2018-08-20T10:25:29.546Z,26.80
2018-08-20T10:27:57.105Z,26.90
2018-08-20T10:30:24.661Z,26.90
2018-08-20T10:32:54.144Z,27.00
2018-08-20T10:35:21.674Z,27.20
2018-08-20T10:37:49.413Z,27.30
2018-08-20T10:40:16.822Z,27.10
2018-08-20T10:42:44.353Z,27.20
2018-08-20T10:45:11.928Z,27.00
2018-08-20T10:47:39.492Z,27.20
2018-08-20T10:50:08.029Z,27.40
2018-08-20T10:52:35.526Z,27.50
2018-08-20T10:55:03.102Z,27.70
2018-08-20T10:57:30.654Z,27.80
2018-08-20T10:59:58.217Z,27.80
2018-08-20T11:02:25.757Z,27.90
2018-08-20T11:04:53.314Z,28.00
2018-08-20T11:07:20.865Z,28.10
2018-08-20T11:09:48.415Z,28.20
2018-08-20T11:12:15.997Z,28.10
2018-08-20T11:14:44.510Z,28.10
2018-08-20T11:17:12.076Z,28.10
2018-08-20T11:19:39.674Z,28.10
2018-08-20T11:22:07.244Z,28.00
2018-08-20T11:24:34.782Z,28.10
2018-08-20T11:27:02.444Z,28.20
2018-08-20T11:29:29.936Z,28.40
2018-08-20T11:31:57.471Z,28.50
2018-08-20T11:34:25.041Z,28.80
2018-08-20T11:36:54.498Z,28.60
2018-08-20T11:39:22.073Z,28.70
2018-08-20T11:41:49.602Z,28.50
2018-08-20T11:44:17.138Z,28.30
2018-08-20T11:46:44.690Z,28.20
2018-08-20T11:49:12.234Z,28.40
2018-08-20T11:51:39.808Z,28.50
2018-08-20T11:54:07.341Z,28.50
2018-08-20T11:56:34.901Z,28.80
2018-08-20T11:59:02.455Z,28.80
2018-08-20T12:01:30.004Z,29.00
2018-08-20T12:03:57.578Z,29.10
2018-08-20T12:06:25.115Z,28.80
2018-08-20T12:08:52.684Z,28.70
2018-08-20T12:11:20.221Z,28.60
2018-08-20T12:13:49.720Z,28.80
2018-08-20T12:16:17.254Z,29.10
2018-08-20T12:18:44.820Z,29.20
2018-08-20T12:21:12.361Z,29.00
2018-08-20T12:23:39.897Z,29.40
2018-08-20T12:26:10.183Z,29.10
2018-08-20T12:28:37.721Z,29.10
2018-08-20T12:31:07.218Z,29.40
2018-08-20T12:33:34.780Z,29.20
2018-08-20T12:36:02.347Z,29.40
2018-08-20T12:38:29.882Z,29.50
2018-08-20T12:40:59.393Z,29.30
2018-08-20T12:43:26.941Z,29.70
2018-08-20T12:45:54.522Z,30.10
2018-08-20T12:48:22.095Z,30.30
2018-08-20T12:50:49.639Z,30.30
2018-08-20T12:53:17.202Z,30.00
2018-08-20T12:55:44.774Z,30.20
2018-08-20T12:58:12.347Z,29.80
2018-08-20T13:00:39.953Z,29.70
2018-08-20T13:03:07.462Z,30.00
2018-08-20T13:05:36.734Z,30.30
2018-08-20T13:08:04.267Z,30.20
2018-08-20T13:10:31.825Z,30.10
2018-08-20T13:12:59.388Z,30.30
2018-08-20T13:15:26.934Z,30.70
2018-08-20T13:17:54.508Z,31.00
2018-08-20T13:20:22.067Z,30.50
2018-08-20T13:22:49.629Z,30.40
2018-08-20T13:25:18.130Z,30.80
2018-08-20T13:27:45.686Z,31.40
2018-08-20T13:30:13.261Z,32.00
2018-08-20T13:32:41.756Z,31.80
2018-08-20T13:35:09.327Z,31.90
2018-08-20T13:37:36.868Z,31.80
2018-08-20T13:40:04.424Z,31.70
2018-08-20T13:42:31.996Z,31.80
2018-08-20T13:44:59.621Z,32.00
2018-08-20T13:47:27.158Z,32.50
2018-08-20T13:49:54.746Z,33.00
2018-08-20T13:52:22.275Z,33.00
2018-08-20T13:54:49.829Z,32.20
2018-08-20T13:57:17.365Z,32.20
2018-08-20T13:59:44.920Z,32.50
2018-08-20T14:02:12.463Z,32.70
2018-08-20T14:04:39.989Z,33.20
2018-08-20T14:07:07.552Z,33.10
2018-08-20T14:09:35.085Z,33.40
2018-08-20T14:12:02.663Z,33.80
2018-08-20T14:14:30.199Z,33.80
2018-08-20T14:16:57.753Z,33.60
2018-08-20T14:19:25.280Z,33.40
2018-08-20T14:21:52.841Z,33.00
2018-08-20T14:24:20.387Z,32.60
2018-08-20T14:26:47.947Z,32.30
2018-08-20T14:29:15.498Z,32.30
2018-08-20T14:31:43.037Z,32.60
2018-08-20T14:34:10.601Z,33.30
2018-08-20T14:36:38.231Z,33.10
2018-08-20T14:39:05.706Z,32.50
2018-08-20T14:41:33.233Z,32.20
2018-08-20T14:44:01.731Z,33.20
2018-08-20T14:46:29.294Z,34.40
2018-08-20T14:48:56.836Z,35.10
2018-08-20T14:51:25.401Z,34.60
2018-08-20T14:53:52.954Z,34.50
2018-08-20T14:56:20.491Z,34.70
2018-08-20T14:58:48.068Z,34.60
2018-08-20T15:01:15.643Z,33.40
2018-08-20T15:03:43.202Z,33.20
2018-08-20T15:06:10.734Z,33.70
2018-08-20T15:08:38.293Z,34.00
2018-08-20T15:11:06.589Z,34.50
2018-08-20T15:13:34.140Z,34.40
2018-08-20T15:16:01.698Z,34.80
2018-08-20T15:18:29.252Z,35.50
2018-08-20T15:20:56.808Z,35.20
2018-08-20T15:23:24.341Z,35.70
2018-08-20T15:25:52.861Z,34.30
2018-08-20T15:28:20.393Z,33.50
2018-08-20T15:30:47.956Z,33.50
2018-08-20T15:33:16.248Z,32.90
2018-08-20T15:35:43.813Z,32.90
2018-08-20T15:38:12.340Z,32.70
2018-08-20T15:40:40.696Z,33.20
2018-08-20T15:43:08.253Z,33.20
2018-08-20T15:45:35.813Z,32.60
2018-08-20T15:48:03.374Z,32.60
2018-08-20T15:50:30.905Z,32.70
2018-08-20T15:52:58.482Z,33.00
2018-08-20T15:55:26.046Z,33.10
2018-08-20T15:57:53.609Z,33.00
2018-08-20T16:00:21.145Z,32.80
2018-08-20T16:02:48.696Z,32.30
2018-08-20T16:05:16.253Z,32.80
2018-08-20T16:07:43.800Z,33.30
2018-08-20T16:10:12.093Z,33.30
2018-08-20T16:12:39.617Z,33.30
2018-08-20T16:15:07.911Z,32.40
2018-08-20T16:17:35.447Z,32.20
2018-08-20T16:20:03.946Z,32.20
2018-08-20T16:22:31.556Z,32.40
2018-08-20T16:25:00.898Z,32.20
2018-08-20T16:27:28.515Z,32.20
2018-08-20T16:29:56.117Z,31.90
2018-08-20T16:32:23.666Z,31.70
2018-08-20T16:34:52.473Z,31.20
2018-08-20T16:37:20.057Z,31.00
2018-08-20T16:39:47.693Z,30.60
2018-08-20T16:42:15.241Z,30.40
2018-08-20T16:44:46.101Z,30.20
2018-08-20T16:47:14.415Z,29.70
2018-08-20T16:49:41.989Z,29.60
2018-08-20T16:52:09.550Z,29.50
2018-08-20T16:54:37.171Z,29.40
2018-08-20T16:57:04.769Z,29.10
2018-08-20T16:59:34.301Z,28.80
2018-08-20T17:02:02.608Z,28.80
2018-08-20T17:04:32.161Z,28.70
2018-08-20T17:06:59.717Z,28.70
2018-08-20T17:09:27.307Z,28.70
2018-08-20T17:11:54.862Z,28.60
2018-08-20T17:14:22.441Z,28.40
2018-08-20T17:16:50.061Z,28.50
2018-08-20T17:19:19.677Z,28.50
2018-08-20T17:21:49.229Z,28.40
2018-08-20T17:24:16.913Z,28.30
2018-08-20T17:26:44.566Z,28.30
2018-08-20T17:29:12.169Z,28.20
2018-08-20T17:31:39.749Z,28.20
2018-08-20T17:34:07.325Z,28.20
2018-08-20T17:36:34.982Z,28.00
2018-08-20T17:39:02.554Z,27.90
2018-08-20T17:41:30.124Z,27.80
2018-08-20T17:43:57.747Z,27.70
2018-08-20T17:46:25.356Z,27.60
2018-08-20T17:48:52.966Z,27.50
2018-08-20T17:51:20.567Z,27.50
2018-08-20T17:53:48.212Z,27.40
2018-08-20T17:56:15.759Z,27.30
2018-08-20T17:58:43.324Z,27.20
2018-08-20T18:01:10.916Z,27.20
2018-08-20T18:03:38.514Z,27.10
2018-08-20T18:06:06.086Z,27.00
2018-08-20T18:08:33.656Z,26.90
2018-08-20T18:11:02.339Z,26.70
2018-08-20T18:13:29.883Z,26.70
2018-08-20T18:15:57.473Z,26.70
2018-08-20T18:18:25.038Z,26.60
2018-08-20T18:20:52.590Z,26.50
2018-08-20T18:23:20.220Z,26.40
2018-08-20T18:25:47.887Z,26.30
2018-08-20T18:28:15.459Z,26.10
2018-08-20T18:30:43.017Z,26.00
2018-08-20T18:33:10.588Z,25.90
2018-08-20T18:35:38.185Z,25.80
2018-08-20T18:38:05.863Z,25.70
2018-08-20T18:40:33.376Z,25.50
2018-08-20T18:43:01.714Z,25.10
2018-08-20T18:45:29.282Z,25.00
2018-08-20T18:47:56.872Z,24.90
2018-08-20T18:50:25.214Z,24.50
2018-08-20T18:52:52.814Z,24.50
2018-08-20T18:55:20.383Z,24.30
2018-08-20T18:57:47.970Z,24.20
2018-08-20T19:00:15.623Z,24.20
2018-08-20T19:02:43.170Z,24.10
2018-08-20T19:05:10.736Z,23.90
2018-08-20T19:07:38.319Z,23.80
2018-08-20T19:10:05.878Z,23.80
2018-08-20T19:12:33.472Z,23.70
2018-08-20T19:15:01.990Z,23.70
2018-08-20T19:17:29.726Z,23.70
2018-08-20T19:19:57.317Z,23.60
2018-08-20T19:22:24.911Z,23.50
2018-08-20T19:24:53.256Z,23.40
2018-08-20T19:27:22.802Z,23.30
2018-08-20T19:29:54.367Z,23.30
2018-08-20T19:32:21.982Z,23.30
2018-08-20T19:34:49.525Z,23.20
2018-08-20T19:37:17.135Z,23.20
2018-08-20T19:39:44.706Z,23.10
2018-08-20T19:42:12.255Z,23.10
2018-08-20T19:44:39.900Z,23.00
2018-08-20T19:47:07.457Z,22.80
2018-08-20T19:49:35.825Z,22.70
2018-08-20T19:52:04.141Z,22.60
2018-08-20T19:54:31.712Z,22.60
2018-08-20T19:56:59.253Z,22.60
2018-08-20T19:59:26.842Z,22.50
2018-08-20T20:01:55.381Z,22.60
2018-08-20T20:04:22.956Z,22.50
2018-08-20T20:06:50.605Z,22.50
2018-08-20T20:09:20.144Z,22.40
2018-08-20T20:11:48.735Z,22.30
2018-08-20T20:14:17.282Z,22.30
2018-08-20T20:16:44.853Z,22.30
2018-08-20T20:19:13.409Z,22.20
2018-08-20T20:21:41.951Z,22.30
2018-08-20T20:24:12.241Z,22.30
2018-08-20T20:26:39.809Z,22.30
2018-08-20T20:29:08.142Z,22.00
2018-08-20T20:31:35.758Z,22.00
2018-08-20T20:34:04.090Z,22.00
2018-08-20T20:36:31.708Z,22.00
2018-08-20T20:39:01.595Z,22.00
2018-08-20T20:41:29.205Z,22.00
2018-08-20T20:43:59.416Z,22.00
2018-08-20T20:46:27.062Z,22.00
2018-08-20T20:48:54.684Z,22.00
2018-08-20T20:51:22.270Z,22.00
2018-08-20T20:53:51.306Z,21.90
2018-08-20T20:56:19.004Z,21.80
2018-08-20T20:58:47.354Z,21.60
2018-08-20T21:01:15.028Z,21.70
2018-08-20T21:03:43.619Z,21.70
2018-08-20T21:06:11.287Z,21.60
2018-08-20T21:08:39.608Z,21.50
2018-08-20T21:11:07.175Z,21.50
2018-08-20T21:13:34.754Z,21.40
2018-08-20T21:16:02.318Z,21.40
2018-08-20T21:18:29.946Z,21.30
2018-08-20T21:20:57.525Z,21.30
2018-08-20T21:23:25.112Z,21.30
2018-08-20T21:25:52.652Z,21.30
2018-08-20T21:28:20.229Z,21.30
2018-08-20T21:30:47.872Z,21.10
2018-08-20T21:33:15.391Z,21.00
2018-08-20T21:35:43.881Z,21.00
2018-08-20T21:38:11.437Z,20.90
2018-08-20T21:40:39.037Z,20.90
2018-08-20T21:43:07.399Z,20.70
2018-08-20T21:45:34.941Z,20.70
2018-08-20T21:48:02.534Z,20.70
2018-08-20T21:50:30.857Z,20.60
2018-08-20T21:52:58.450Z,20.50
2018-08-20T21:58:18.308Z,20.60
2018-08-20T22:00:45.862Z,20.50
2018-08-20T22:03:15.363Z,20.50
2018-08-20T22:05:42.896Z,20.50
2018-08-20T22:08:10.431Z,20.50
2018-08-20T22:10:38.001Z,20.50
2018-08-20T22:13:05.564Z,20.40
2018-08-20T22:15:33.129Z,20.30
2018-08-20T22:18:00.658Z,20.20
2018-08-20T22:20:28.289Z,20.20
2018-08-20T22:22:56.732Z,20.30
2018-08-20T22:25:24.285Z,20.30
2018-08-20T22:27:51.814Z,20.30
2018-08-20T22:30:19.366Z,20.30
2018-08-20T22:32:47.663Z,20.20
2018-08-20T22:35:15.188Z,20.10
2018-08-20T22:37:43.509Z,20.20
2018-08-20T22:40:11.065Z,20.20
2018-08-20T22:42:46.527Z,20.20
2018-08-20T22:45:14.081Z,20.20
2018-08-20T22:47:41.615Z,20.10
2018-08-20T22:50:09.169Z,20.00
2018-08-20T22:52:36.692Z,19.90
2018-08-20T22:55:04.213Z,19.90
2018-08-20T22:57:31.761Z,19.90
2018-08-20T22:59:59.286Z,19.90
2018-08-20T23:02:26.842Z,19.80
2018-08-20T23:04:54.364Z,19.80
2018-08-20T23:07:21.926Z,19.70
2018-08-20T23:09:50.349Z,19.50
2018-08-20T23:12:17.905Z,19.50
2018-08-20T23:14:45.468Z,19.50
2018-08-20T23:17:13.005Z,19.60
2018-08-20T23:19:40.546Z,19.60
2018-08-20T23:22:08.076Z,19.60
2018-08-20T23:24:37.840Z,19.50
2018-08-20T23:27:05.397Z,19.40
2018-08-20T23:29:34.901Z,19.40
2018-08-20T23:32:02.437Z,19.40
2018-08-20T23:34:30.002Z,19.40
2018-08-20T23:36:57.557Z,19.30
2018-08-20T23:39:25.112Z,19.20
2018-08-20T23:41:52.642Z,19.10
2018-08-20T23:44:20.208Z,19.10
2018-08-20T23:46:48.501Z,19.10
2018-08-20T23:49:16.064Z,19.00
2018-08-20T23:51:43.618Z,19.10
2018-08-20T23:54:11.172Z,19.10
2018-08-20T23:56:38.696Z,19.10
2018-08-20T23:59:06.253Z,19.10
